Main page
METAR-TAF:

METAR-TAF

Airports :

Curaçao International Airport

Curaçao, Netherlands Antilles

latitude: 12-12N, longitude: 068-58W, elevation: 9 m

Current weather observation

The report was made 23 minutes ago, at 04:00 UTC
Wind 12 kt from the East
Temperature 27°C
Humidity 79%
Pressure 1014 hPa
Visibility 10 km or more
Scattered clouds at a height of 1800 ft

METAR: TNCC 250400Z 09012KT 9999 SCT018 27/23 Q1014 NOSIG

Time: 00:23 (04:23 UTC)

Forecast

The report was made 5 hours and 8 minutes ago, at 23:15 UTC
Forecast valid from 25 at 00 UTC to 25 at 24 UTC
Wind 10 kt from the East
Visibility 10 km or more
Scattered clouds at a height of 2200 ft

TAF: TNCC 242315Z 2500/2524 09010KT 9999 SCT022

Weather observations and forecasts of more than 4000 airports (METAR and TAF reports).

The available stations are represented by yellow and red dots on the map.

Hover mouse over dot to see the name of the station.

Then click to see weather observations and forecasts.

To change the map : click on the green buttons with a black cross to zoom in, on the green button with a dash to zoom out, or on the green arrows for adjacent maps.


METAR-TAF: